ilmateenistus.ee keskkonnaagentuur.ee
EETN Tallinn
FTEO31 EETN 071100
TAF EETN 071130Z 0712/0812 12008KT 5000 SN SCT008 BKN025 TEMPO
    0712/0719 1500 +SN BKN004 OVC015 TEMPO 0719/0806 3000 SN BKN010 BECMG
    0806/0808 VRB02KT PROB40 TEMPO 0806/0809 1000 +SN BR OVC003 BECMG
    0810/0812 23010KT=

METAR EETN 071520Z 10007KT 2900 SN FEW009 OVC028 M04/M04 Q1002 TEMPO 1500 +SN=
Tallinn
EEKA Kärdla
FCEO32 EETN 071300
TAF EEKA 071300Z 0714/0720 10008KT 2000 SN OVC007 TEMPO 0714/0717
    1200 +SHSN BKN004 BKN010 SCT013CB PROB30 TEMPO 0714/0717 -FZDZ TEMPO
    0717/0720 SCT013CB BKN015=

METAR EEKA 071520Z 08005KT 2500 SN BKN004 OVC016 M02/M02 Q1001=
Kärdla
EEKE Kuressaare
FCEO32 EETN 071500
TAF EEKE 071500Z 0716/0722 12008KT 3000 SN BKN005 OVC015 TEMPO
    0716/0718 1200 +SHSN BR BKN003 BKN010 SCT013CB=

METAR EEKE 071520Z 11006KT 3000 SN BKN003 BKN011 OVC031 00/M00 Q0999=
Kuressaare
EEPU Pärnu
SPECI EEPU 071535Z AUTO 11005KT 080V140 2800 -SN FEW007/// BKN021/// OVC024/// M03/M04 Q1001=
Pärnu
EETU Tartu
METAR EETU 071520Z 12010KT 5000 -SN BKN009 OVC036 M05/M06 Q1003=
Tartu
EEEI Ämari
SPECI EEEI 071526Z 09006KT 3600 SN FEW007 OVC027 M03/M04 Q1002=
Ämari
Kihnu
Ruhnu
Ridali
Viljandi